Time;durP1;ratioP1;P1;durP2;ratioP2;P2;SDS_P1;SDS_P2;PMS_P1;PMS_P2;Temp;Humidity;BMP_temperature;BMP_pressure;BME280_temperature;BME280_humidity;BME280_pressure;Samples;Min_cycle;Max_cycle;Signal;HPM_P1;HPM_P2
2022/08/26 00:01:46;;;;;;;62.63;56.20;;;;;;;20.37;100.00;165897.00;4991252;28;20478;-65
2022/08/26 00:04:12;;;;;;;61.70;55.13;;;;;;;20.35;100.00;165891.59;4990129;28;20053;-64
2022/08/26 00:06:38;;;;;;;67.00;60.15;;;;;;;20.37;100.00;165897.00;4990959;28;20026;-65
2022/08/26 00:09:04;;;;;;;67.30;60.38;;;;;;;20.35;100.00;165891.59;4990341;28;20189;-64
2022/08/26 00:11:29;;;;;;;71.07;63.70;;;;;;;20.31;100.00;165880.72;4991272;28;20019;-65
2022/08/26 00:13:56;;;;;;;67.88;57.40;;;;;;;20.27;100.00;165872.63;4989733;28;20058;-64
2022/08/26 00:16:23;;;;;;;71.88;65.05;;;;;;;20.29;100.00;165876.66;4991147;28;20022;-64
2022/08/26 00:18:49;;;;;;;69.30;61.90;;;;;;;20.27;100.00;165872.63;4991225;28;20108;-65
2022/08/26 00:21:14;;;;;;;69.30;62.70;;;;;;;20.26;100.00;165869.88;4989490;28;20193;-65
2022/08/26 00:23:39;;;;;;;72.30;64.47;;;;;;;20.25;100.00;165867.16;4990919;28;20382;-65
2022/08/26 00:26:05;;;;;;;71.55;64.22;;;;;;;20.22;100.00;165859.00;4989900;28;20043;-65
2022/08/26 00:28:31;;;;;;;73.20;65.45;;;;;;;20.21;100.00;165856.31;4990997;28;20022;-65
2022/08/26 00:30:57;;;;;;;67.68;60.78;;;;;;;20.22;100.00;165857.66;4990317;28;20065;-64
2022/08/26 00:33:22;;;;;;;73.43;65.70;;;;;;;20.22;100.00;165857.66;4995016;28;20022;-65
2022/08/26 00:35:49;;;;;;;73.63;66.40;;;;;;;20.19;100.00;165849.50;4992737;28;20038;-64
2022/08/26 00:38:15;;;;;;;75.97;68.38;;;;;;;20.14;100.00;165837.31;4994682;28;20030;-64
2022/08/26 00:40:51;;;;;;;73.80;66.15;;;;;;;20.13;100.00;165834.59;4993346;28;20070;-64
2022/08/26 00:43:17;;;;;;;75.55;67.88;;;;;;;20.08;100.00;165821.00;4994903;28;20070;-64
2022/08/26 00:45:47;;;;;;;76.13;68.15;;;;;;;20.06;100.00;165815.59;4993122;28;20045;-64
2022/08/26 00:48:16;;;;;;;73.85;66.32;;;;;;;20.03;100.00;165808.78;4994996;28;20030;-65
2022/08/26 00:50:49;;;;;;;76.78;68.80;;;;;;;19.93;100.00;165783.00;4992383;28;20522;-65
2022/08/26 00:53:22;;;;;;;75.30;67.78;;;;;;;19.91;100.00;165776.22;4994628;28;20030;-65
2022/08/26 00:55:57;;;;;;;70.75;63.55;;;;;;;19.96;100.00;165791.16;4992965;28;20046;-64
2022/08/26 00:58:25;;;;;;;72.85;65.28;;;;;;;19.91;100.00;165777.63;4994515;28;20023;-64
2022/08/26 01:00:51;;;;;;;78.17;67.73;;;;;;;19.88;100.00;165768.13;4992980;28;20039;-65
2022/08/26 01:03:20;;;;;;;74.38;66.15;;;;;;;19.84;100.00;165758.63;4994831;28;20437;-65
2022/08/26 01:05:46;;;;;;;77.32;69.32;;;;;;;19.81;100.00;165750.41;4992268;28;20053;-63
2022/08/26 01:08:12;;;;;;;73.03;65.25;;;;;;;19.77;100.00;165740.91;4994612;28;20022;-63
2022/08/26 01:10:37;;;;;;;82.10;69.85;;;;;;;19.75;100.00;165734.13;4992639;28;20053;-63
2022/08/26 01:13:11;;;;;;;76.30;68.68;;;;;;;19.76;100.00;165736.84;4993867;28;20077;-64
2022/08/26 01:15:49;;;;;;;72.93;65.00;;;;;;;19.77;100.00;165739.56;4992587;28;20553;-63
2022/08/26 01:18:15;;;;;;;75.13;67.20;;;;;;;19.75;100.00;165735.47;4994059;28;20080;-63
2022/08/26 01:21:24;;;;;;;74.82;65.40;;;;;;;19.72;100.00;165725.97;4992061;28;20042;-63
2022/08/26 01:23:51;;;;;;;78.22;69.70;;;;;;;19.70;100.00;165720.53;4992657;28;20027;-63
2022/08/26 01:26:39;;;;;;;74.88;67.03;;;;;;;19.68;100.00;165716.47;4993852;28;20019;-63
2022/08/26 01:29:06;;;;;;;75.75;67.78;;;;;;;19.66;100.00;165712.41;4992746;28;20057;-64
2022/08/26 01:31:40;;;;;;;75.28;67.45;;;;;;;19.63;100.00;165704.25;4993837;28;20637;-63
2022/08/26 01:34:16;;;;;;;74.88;66.63;;;;;;;19.63;100.00;165704.25;4992222;28;20072;-63
2022/08/26 01:36:43;;;;;;;78.05;67.63;;;;;;;19.59;100.00;165693.41;4993424;28;20023;-63
2022/08/26 01:39:09;;;;;;;76.72;67.82;;;;;;;19.58;100.00;165690.69;4992175;28;20046;-64
2022/08/26 01:41:35;;;;;;;75.00;66.50;;;;;;;19.56;100.00;165685.25;4992831;28;20501;-63
2022/08/26 01:44:02;;;;;;;76.32;67.50;;;;;;;19.54;100.00;165679.84;4992269;28;20077;-64
2022/08/26 01:46:29;;;;;;;74.63;66.53;;;;;;;19.53;100.00;165675.75;4993199;28;20026;-63
2022/08/26 01:48:58;;;;;;;76.30;68.30;;;;;;;19.53;100.00;165677.13;4991812;28;20031;-64
2022/08/26 01:51:26;;;;;;;78.38;65.80;;;;;;;19.55;100.00;165681.19;4993711;28;20105;-63
2022/08/26 01:53:52;;;;;;;76.88;66.25;;;;;;;19.55;100.00;165682.53;4992349;28;20118;-63
2022/08/26 01:56:18;;;;;;;73.35;65.45;;;;;;;19.56;100.00;165685.25;4993079;28;20030;-63
2022/08/26 01:58:54;;;;;;;78.47;66.32;;;;;;;19.56;100.00;165683.91;4993470;28;20053;-62
2022/08/26 02:01:22;;;;;;;76.03;67.38;;;;;;;19.49;100.00;165666.25;4972730;28;20057;-63
2022/08/26 02:03:58;;;;;;;80.45;69.70;;;;;;;19.53;100.00;165593.06;4971796;28;20037;-63
2022/08/26 02:06:24;;;;;;;80.97;68.80;;;;;;;19.51;100.00;165242.88;4954723;28;20118;-63
2022/08/26 02:08:55;;;;;;;78.57;69.32;;;;;;;19.51;100.00;164721.63;4953562;28;20537;-63
2022/08/26 02:11:21;;;;;;;75.15;65.35;;;;;;;19.50;100.00;162564.59;4973410;28;20034;-63
2022/08/26 02:13:50;;;;;;;75.97;67.25;;;;;;;19.50;100.00;162753.63;4988747;28;20026;-63
2022/08/26 02:16:21;;;;;;;77.03;65.10;;;;;;;19.49;100.00;163393.81;4993212;28;20093;-63
2022/08/26 02:18:47;;;;;;;74.45;64.82;;;;;;;19.48;100.00;162438.84;4991021;28;20382;-63
2022/08/26 02:21:15;;;;;;;75.03;65.78;;;;;;;19.49;100.00;161002.25;4993171;28;20102;-63
2022/08/26 02:23:40;;;;;;;73.63;65.65;;;;;;;19.52;100.00;161385.34;4992735;28;20065;-63
2022/08/26 02:26:10;;;;;;;79.15;68.40;;;;;;;19.52;100.00;163097.97;4991115;28;20038;-62
2022/08/26 02:28:44;;;;;;;73.18;65.40;;;;;;;19.41;100.00;162045.03;4992463;28;20097;-62
2022/08/26 02:31:10;;;;;;;79.20;64.60;;;;;;;19.51;100.00;161416.31;4991241;28;20134;-63
2022/08/26 02:33:35;;;;;;;77.25;64.28;;;;;;;19.53;100.00;162278.53;4992101;28;20038;-62
2022/08/26 02:36:01;;;;;;;71.10;61.30;;;;;;;19.56;100.00;163922.47;4991136;28;20050;-62
2022/08/26 02:38:28;;;;;;;68.25;57.38;;;;;;;19.61;100.00;165356.88;4992498;28;20066;-62
2022/08/26 02:40:53;;;;;;;72.35;60.85;;;;;;;19.61;100.00;165698.84;4990706;28;20981;-62
2022/08/26 02:43:19;;;;;;;79.55;62.40;;;;;;;19.59;100.00;165693.41;4992980;28;20018;-61
2022/08/26 02:45:44;;;;;;;66.18;56.72;;;;;;;19.64;100.00;165705.63;4990750;28;20038;-62
2022/08/26 02:48:13;;;;;;;68.40;57.55;;;;;;;19.64;100.00;165706.97;4992408;28;20026;-62
2022/08/26 02:50:39;;;;;;;71.47;57.55;;;;;;;19.66;100.00;165711.03;4990810;28;20116;-62
2022/08/26 02:53:05;;;;;;;62.50;54.28;;;;;;;19.66;100.00;165712.41;4992036;28;20030;-61
2022/08/26 02:55:31;;;;;;;63.45;56.05;;;;;;;19.69;100.00;165719.19;4989807;28;20543;-62
2022/08/26 02:57:57;;;;;;;72.85;58.25;;;;;;;19.58;100.00;165689.34;4992380;28;20046;-62
2022/08/26 03:00:23;;;;;;;69.38;55.97;;;;;;;19.64;100.00;165706.97;4990685;28;20041;-62
2022/08/26 03:02:49;;;;;;;57.53;51.38;;;;;;;19.66;100.00;165712.41;4991942;28;20022;-62
2022/08/26 03:05:16;;;;;;;56.13;49.20;;;;;;;19.73;100.00;165728.69;4990888;28;20042;-62
2022/08/26 03:07:42;;;;;;;60.28;52.67;;;;;;;19.69;100.00;165717.84;4991818;28;20018;-63
2022/08/26 03:10:08;;;;;;;57.80;50.78;;;;;;;19.70;100.00;165721.91;4971320;28;20064;-63
2022/08/26 03:12:34;;;;;;;67.18;50.90;;;;;;;19.72;100.00;165725.97;4972175;28;20073;-62
2022/08/26 03:14:59;;;;;;;57.22;47.30;;;;;;;19.74;100.00;165731.41;4971206;28;20046;-62
2022/08/26 03:17:24;;;;;;;62.72;49.20;;;;;;;19.76;100.00;165736.84;4972815;28;20049;-64
2022/08/26 03:19:50;;;;;;;52.70;47.00;;;;;;;19.70;100.00;165721.91;4970701;28;20159;-64
2022/08/26 03:22:15;;;;;;;54.78;45.33;;;;;;;19.73;100.00;165728.69;4972595;28;20022;-64
2022/08/26 03:24:41;;;;;;;51.90;46.03;;;;;;;19.70;100.00;165721.91;4988766;28;20039;-64
2022/08/26 03:27:06;;;;;;;51.33;43.65;;;;;;;19.72;100.00;165725.97;4991902;28;20027;-64
2022/08/26 03:32:15;;;;;;;51.80;44.22;;;;;;;19.70;100.00;165720.53;4992010;28;20544;-63
2022/08/26 03:34:41;;;;;;;47.40;41.33;;;;;;;19.66;100.00;165712.41;4989947;28;20042;-63
2022/08/26 03:37:07;;;;;;;49.30;40.80;;;;;;;19.73;100.00;165728.69;4991208;28;20073;-63
2022/08/26 03:39:32;;;;;;;53.05;40.63;;;;;;;19.72;100.00;165725.97;4990247;28;20502;-63
2022/08/26 03:41:58;;;;;;;46.78;36.33;;;;;;;19.75;100.00;165735.47;4991436;28;20027;-65
2022/08/26 03:44:23;;;;;;;46.28;39.38;;;;;;;19.72;100.00;165725.97;4990224;28;20058;-64
2022/08/26 03:46:49;;;;;;;42.75;36.70;;;;;;;19.68;100.00;165715.13;4991598;28;20023;-64
2022/08/26 03:49:14;;;;;;;40.92;34.28;;;;;;;19.65;100.00;165709.69;4989862;28;20497;-63
2022/08/26 03:51:39;;;;;;;44.65;34.90;;;;;;;19.66;100.00;165712.41;4991459;28;20026;-64
2022/08/26 03:54:06;;;;;;;40.78;35.65;;;;;;;19.60;100.00;165696.13;4990224;28;20101;-64
2022/08/26 03:56:32;;;;;;;45.28;37.83;;;;;;;19.63;100.00;165704.25;4991007;28;20026;-64
2022/08/26 03:59:01;;;;;;;45.40;34.92;;;;;;;19.60;100.00;165696.13;4990229;28;20034;-64
2022/08/26 04:01:27;;;;;;;40.53;34.30;;;;;;;19.60;100.00;165696.13;4991593;28;20022;-63
2022/08/26 04:03:58;;;;;;;39.28;33.03;;;;;;;19.66;100.00;165712.41;4989774;28;20089;-63
2022/08/26 04:06:42;;;;;;;39.47;29.33;;;;;;;19.68;100.00;165715.13;4994419;28;20069;-64
2022/08/26 04:09:14;;;;;;;34.95;31.55;;;;;;;19.68;100.00;165716.47;4994183;28;20042;-64
2022/08/26 04:11:43;;;;;;;35.17;30.90;;;;;;;19.70;100.00;165720.53;4994613;28;20081;-62
2022/08/26 04:14:13;;;;;;;42.17;29.83;;;;;;;19.67;100.00;165713.75;4993920;28;20046;-61
2022/08/26 04:16:39;;;;;;;33.50;30.15;;;;;;;19.67;100.00;165713.75;4994762;28;20018;-61
2022/08/26 04:19:05;;;;;;;32.97;29.40;;;;;;;19.64;100.00;165706.97;4993519;28;20529;-62
2022/08/26 04:21:30;;;;;;;38.75;31.38;;;;;;;19.62;100.00;165701.53;4994571;28;20014;-62
2022/08/26 04:23:56;;;;;;;36.53;31.33;;;;;;;19.61;100.00;165697.47;4993260;28;20371;-61
2022/08/26 04:26:22;;;;;;;36.30;29.58;;;;;;;19.61;100.00;165698.84;4994858;28;20014;-61
2022/08/26 04:28:48;;;;;;;38.70;31.65;;;;;;;19.58;100.00;165689.34;4993516;28;20545;-62
2022/08/26 04:31:16;;;;;;;35.30;30.17;;;;;;;19.60;100.00;165696.13;5009995;28;20034;-62
2022/08/26 04:33:43;;;;;;;39.53;30.07;;;;;;;19.58;100.00;165690.69;4993184;28;20430;-61
2022/08/26 04:36:08;;;;;;;36.88;29.85;;;;;;;19.53;100.00;165677.13;4993355;28;20042;-62
2022/08/26 04:38:34;;;;;;;32.50;27.50;;;;;;;19.54;100.00;165679.84;4994690;28;20087;-62
2022/08/26 04:41:00;;;;;;;36.20;27.00;;;;;;;19.57;100.00;165687.97;4992350;28;20051;-59
2022/08/26 04:43:29;;;;;;;53.78;31.05;;;;;;;19.48;100.00;165663.53;4994293;28;20037;-59
2022/08/26 04:46:02;;;;;;;43.05;28.67;;;;;;;19.43;100.00;165649.97;4993183;28;20042;-59
2022/08/26 04:48:29;;;;;;;37.63;26.45;;;;;;;19.42;100.00;165648.66;4994227;28;20058;-59
2022/08/26 04:50:55;;;;;;;33.03;27.33;;;;;;;19.43;100.00;165649.97;4993245;28;20045;-59
2022/08/26 04:53:20;;;;;;;37.25;29.40;;;;;;;19.44;100.00;165652.72;4994686;28;20466;-59
2022/08/26 04:55:46;;;;;;;31.48;28.15;;;;;;;19.51;100.00;165671.69;4992244;28;20042;-59
2022/08/26 04:58:17;;;;;;;39.35;27.52;;;;;;;19.56;100.00;165685.25;4994566;28;20092;-60
2022/08/26 05:00:47;;;;;;;28.33;22.95;;;;;;;19.55;100.00;165682.53;4992959;28;20053;-61
2022/08/26 05:03:14;;;;;;;30.38;23.80;;;;;;;19.59;100.00;165693.41;4994470;28;20018;-61
2022/08/26 05:05:44;;;;;;;26.58;22.13;;;;;;;19.61;100.00;165697.47;4992553;28;20049;-60
2022/08/26 05:08:11;;;;;;;29.13;22.95;;;;;;;19.60;100.00;165696.13;4994669;28;20100;-61
2022/08/26 05:10:40;;;;;;;29.13;22.58;;;;;;;19.61;100.00;165697.47;4992394;28;20502;-60
2022/08/26 05:13:06;;;;;;;28.58;23.42;;;;;;;19.62;100.00;165701.53;4994588;28;20057;-60
2022/08/26 05:15:32;;;;;;;30.95;23.92;;;;;;;19.64;100.00;165706.97;4992425;28;20038;-60
2022/08/26 05:17:58;;;;;;;32.15;24.80;;;;;;;19.61;100.00;165698.84;4993546;28;20674;-60
2022/08/26 05:20:24;;;;;;;31.95;24.35;;;;;;;19.69;100.00;165717.84;4992905;28;20047;-61
2022/08/26 05:22:49;;;;;;;32.47;24.77;;;;;;;19.71;100.00;165723.25;4993929;28;20026;-60
2022/08/26 05:25:14;;;;;;;26.58;21.48;;;;;;;19.75;100.00;165734.13;4992289;28;20038;-60
2022/08/26 05:27:40;;;;;;;31.23;21.77;;;;;;;19.81;100.00;165750.41;4993939;28;20029;-60
2022/08/26 05:30:06;;;;;;;22.90;20.38;;;;;;;19.75;100.00;165734.13;4992382;28;20054;-60
2022/08/26 05:32:31;;;;;;;27.55;23.02;;;;;;;19.76;100.00;165736.84;4993424;28;20473;-60
2022/08/26 05:34:56;;;;;;;31.58;23.38;;;;;;;19.82;100.00;165753.13;4992528;28;20156;-60
2022/08/26 05:37:22;;;;;;;32.28;22.20;;;;;;;19.85;100.00;165761.28;4993749;28;20033;-60
2022/08/26 05:39:48;;;;;;;27.73;20.60;;;;;;;19.90;100.00;165774.88;4991766;28;20125;-60
2022/08/26 05:42:14;;;;;;;30.42;21.02;;;;;;;19.85;100.00;165761.28;4993897;28;20023;-63
2022/08/26 05:44:39;;;;;;;28.15;21.85;;;;;;;19.87;100.00;165765.38;4992317;28;20038;-62
2022/08/26 05:47:06;;;;;;;32.78;23.15;;;;;;;19.94;100.00;165785.72;4993259;28;20029;-61
2022/08/26 05:49:31;;;;;;;28.95;22.02;;;;;;;19.94;100.00;165785.72;4992123;28;20046;-59
2022/08/26 05:51:57;;;;;;;26.45;20.33;;;;;;;19.90;100.00;165774.88;4993348;28;20026;-57
2022/08/26 05:54:22;;;;;;;28.70;20.98;;;;;;;19.87;100.00;165766.72;4991720;28;20097;-58
2022/08/26 05:56:48;;;;;;;24.30;19.98;;;;;;;19.97;100.00;165793.88;4993378;28;20030;-59
2022/08/26 05:59:14;;;;;;;24.92;18.70;;;;;;;20.05;100.00;165812.88;4992002;28;20108;-59
2022/08/26 06:01:39;;;;;;;37.75;20.60;;;;;;;20.07;100.00;165819.66;4992890;28;20062;-59
2022/08/26 06:04:04;;;;;;;26.63;18.27;;;;;;;20.12;100.00;165831.88;4992015;28;20050;-59
2022/08/26 06:06:33;;;;;;;27.83;20.25;;;;;;;20.17;100.00;165845.44;4993071;28;20030;-59
2022/08/26 06:09:00;;;;;;;27.55;19.38;;;;;;;20.22;100.00;165859.00;4991451;28;20033;-59
2022/08/26 06:11:27;;;;;;;31.85;23.02;;;;;;;20.21;100.00;165856.31;4993031;28;20026;-59
2022/08/26 06:13:55;;;;;;;24.75;20.42;;;;;;;20.31;100.00;165880.72;4991657;28;20371;-59
2022/08/26 06:16:23;;;;;;;24.75;20.08;;;;;;;20.23;100.00;165861.72;4992757;28;20019;-59
2022/08/26 06:18:49;;;;;;;31.42;20.30;;;;;;;20.25;100.00;165867.16;4991464;28;20386;-59
2022/08/26 06:21:27;;;;;;;32.13;22.35;;;;;;;20.27;100.00;165871.22;4993112;28;20068;-59
2022/08/26 06:26:45;;;;;;;33.03;18.73;;;;;;;20.44;100.00;165916.00;4992899;28;20032;-60
2022/08/26 06:29:11;;;;;;;30.60;19.65;;;;;;;20.50;100.00;165930.94;4991540;28;20054;-60
2022/08/26 06:31:36;;;;;;;28.52;19.38;;;;;;;20.60;100.00;165959.47;4992275;28;20084;-59
2022/08/26 06:34:03;;;;;;;24.10;21.63;;;;;;;20.70;100.00;165985.25;4991481;28;20026;-60
2022/08/26 06:36:30;;;;;;;23.15;18.00;;;;;;;20.78;100.00;166005.69;4992427;28;20049;-60
2022/08/26 06:39:00;;;;;;;34.38;18.50;;;;;;;20.86;100.00;166027.41;4990849;28;20038;-59
2022/08/26 06:41:26;;;;;;;28.45;20.13;;;;;;;20.94;100.00;166047.75;4992244;28;20035;-59
2022/08/26 06:43:51;;;;;;;36.20;23.27;;;;;;;20.97;100.00;166054.53;4991247;28;20363;-59
2022/08/26 06:46:18;;;;;;;35.97;19.45;;;;;;;20.89;100.00;166035.53;4992236;28;20437;-59
2022/08/26 06:48:44;;;;;;;23.15;18.42;;;;;;;20.90;100.00;166036.91;4992371;28;20041;-59
2022/08/26 06:51:12;;;;;;;27.60;18.55;;;;;;;20.86;100.00;166027.41;4991001;28;20068;-59
2022/08/26 06:53:38;;;;;;;32.65;20.25;;;;;;;20.92;100.00;166042.38;4991920;28;20041;-59
2022/08/26 06:56:06;;;;;;;24.30;17.30;;;;;;;20.92;100.00;166043.69;4987708;28;20061;-60
2022/08/26 06:58:33;;;;;;;23.92;16.98;;;;;;;20.91;100.00;166040.97;5000394;28;20036;-59
2022/08/26 07:00:58;;;;;;;25.45;17.77;;;;;;;21.01;100.00;166065.44;5009926;28;20041;-59
2022/08/26 07:03:24;;;;;;;24.75;18.75;;;;;;;21.02;100.00;166068.16;4996841;28;20521;-60
2022/08/26 07:05:49;;;;;;;20.65;15.65;;;;;;;20.96;100.00;166053.22;4990622;28;20042;-60
2022/08/26 07:08:15;;;;;;;27.52;17.55;;;;;;;20.86;100.00;166027.41;4991680;28;20551;-60
2022/08/26 07:10:41;;;;;;;22.52;17.35;;;;;;;20.83;100.00;166019.25;4990443;28;20045;-60
2022/08/26 07:13:07;;;;;;;25.05;16.60;;;;;;;20.85;100.00;166023.34;4992036;28;20081;-60
2022/08/26 07:15:34;;;;;;;23.40;15.75;;;;;;;20.88;100.00;166032.84;4989906;28;20046;-60
2022/08/26 07:18:00;;;;;;;20.70;15.55;;;;;;;20.93;100.00;166045.03;4991928;28;20023;-60
2022/08/26 07:20:26;;;;;;;19.77;14.88;;;;;;;20.98;100.00;166057.25;4990273;28;20042;-59
2022/08/26 07:22:51;;;;;;;23.20;11.13;;;;;;;20.98;100.00;166057.25;4990952;28;20056;-60
2022/08/26 07:25:16;;;;;;;22.48;13.15;;;;;;;21.03;100.00;166070.88;4995899;28;20043;-60
2022/08/26 07:27:42;;;;;;;18.48;11.98;;;;;;;21.08;100.00;166085.78;4991604;28;20051;-60
2022/08/26 07:30:08;;;;;;;21.77;11.85;;;;;;;21.13;100.00;166096.66;5001050;28;20065;-60
2022/08/26 07:32:33;;;;;;;16.63;11.00;;;;;;;21.21;100.00;166119.75;5011025;28;20068;-60
2022/08/26 07:34:59;;;;;;;20.48;10.32;;;;;;;21.20;100.00;166117.00;5009936;28;20069;-59
2022/08/26 07:37:24;;;;;;;24.38;13.77;;;;;;;21.24;100.00;166127.91;5010661;28;20026;-60
2022/08/26 07:39:50;;;;;;;19.70;9.65;;;;;;;21.27;100.00;166134.69;5008398;28;20030;-60
2022/08/26 07:42:17;;;;;;;20.77;11.23;;;;;;;21.18;100.00;166111.63;5011710;28;20030;-60
2022/08/26 07:44:43;;;;;;;16.02;9.88;;;;;;;21.16;100.00;166106.16;5009311;28;20084;-59
2022/08/26 07:47:09;;;;;;;19.48;10.57;;;;;;;21.17;100.00;166108.91;4998674;28;20481;-60
2022/08/26 07:49:36;;;;;;;15.23;10.18;;;;;;;21.12;100.00;166095.28;5003579;28;20125;-65
2022/08/26 07:52:03;;;;;;;11.18;8.55;;;;;;;21.14;100.00;166100.72;4990924;28;20500;-61
2022/08/26 07:54:28;;;;;;;28.65;9.18;;;;;;;21.05;100.00;166077.66;4990316;28;20405;-59
2022/08/26 07:56:54;;;;;;;17.92;8.32;;;;;;;21.11;100.00;166092.56;4991282;28;20027;-59
2022/08/26 07:59:20;;;;;;;17.40;9.90;;;;;;;21.20;100.00;166117.00;4989968;28;20038;-59
2022/08/26 08:01:45;;;;;;;15.55;7.82;;;;;;;21.19;100.00;166112.94;4991391;28;20489;-59
2022/08/26 08:04:16;;;;;;;15.93;8.05;;;;;;;21.29;100.00;166138.75;4990408;28;20039;-60
2022/08/26 08:06:42;;;;;;;18.75;8.68;;;;;;;21.37;100.00;166160.47;4991030;28;20038;-59
2022/08/26 08:09:07;;;;;;;20.60;7.65;;;;;;;21.21;100.00;166118.41;4990057;28;20058;-60
2022/08/26 08:11:33;;;;;;;13.38;8.43;;;;;;;21.39;100.00;166165.94;4991193;28;20085;-59
2022/08/26 08:13:59;;;;;;;15.85;8.70;;;;;;;21.61;100.00;166223.00;4989736;28;20030;-59
2022/08/26 08:16:27;;;;;;;15.52;8.43;;;;;;;21.69;100.00;166246.09;4990881;28;20018;-59
2022/08/26 08:18:55;;;;;;;14.10;8.67;;;;;;;21.75;100.00;166261.03;4989370;28;20479;-59
2022/08/26 08:21:24;;;;;;;14.48;8.93;;;;;;;21.89;100.00;166296.34;4990807;28;20030;-60
2022/08/26 08:23:54;;;;;;;21.95;8.50;;;;;;;21.89;100.00;166296.34;4988772;28;20046;-59
2022/08/26 08:26:20;;;;;;;11.55;7.35;;;;;;;21.91;100.00;166301.81;4992001;28;20027;-60
2022/08/26 08:28:46;;;;;;;20.50;7.80;;;;;;;22.05;100.00;166339.84;4990975;28;20565;-60
2022/08/26 08:31:23;;;;;;;15.90;6.90;;;;;;;21.92;100.00;166305.88;4989907;28;20417;-59
2022/08/26 08:33:48;;;;;;;15.87;5.93;;;;;;;21.96;100.00;166315.38;4989825;28;20022;-59
2022/08/26 08:36:15;;;;;;;8.05;4.93;;;;;;;22.08;100.00;166347.97;4990971;28;20037;-59
2022/08/26 08:38:41;;;;;;;26.20;9.32;;;;;;;22.22;100.00;166383.31;4991259;28;20058;-58
2022/08/26 08:41:17;;;;;;;11.10;5.35;;;;;;;22.18;100.00;166375.16;4989817;28;20042;-58
2022/08/26 08:43:46;;;;;;;14.18;7.38;;;;;;;22.22;100.00;166383.31;4990618;28;20026;-58
2022/08/26 08:46:15;;;;;;;12.55;5.32;;;;;;;22.37;100.00;166424.09;4989688;28;20039;-58
2022/08/26 08:48:45;;;;;;;16.13;5.80;;;;;;;22.12;100.00;166358.84;4990429;28;20109;-58
2022/08/26 08:51:24;;;;;;;15.63;5.20;;;;;;;22.28;100.00;166399.63;4988979;28;20042;-58
2022/08/26 08:53:53;;;;;;;36.17;7.28;;;;;;;22.29;100.00;166402.34;4992346;28;20485;-58
2022/08/26 08:56:40;;;;;;;24.98;5.85;;;;;;;22.19;100.00;166376.50;4993882;28;20545;-58
2022/08/26 08:59:18;;;;;;;18.25;4.45;;;;;;;22.24;100.00;166388.72;4992337;28;20077;-58
2022/08/26 09:02:21;;;;;;;17.42;5.55;;;;;;;22.25;100.00;166391.44;4994106;28;20394;-58
2022/08/26 09:05:06;;;;;;;14.40;4.65;;;;;;;22.31;100.00;166407.75;4992556;28;20401;-58
2022/08/26 09:07:43;;;;;;;13.77;4.22;;;;;;;22.43;100.00;166440.44;4994012;28;20117;-58
2022/08/26 09:10:33;;;;;;;21.77;5.22;;;;;;;22.42;100.00;166437.72;4993048;28;20290;-58
2022/08/26 09:13:00;;;;;;;17.50;5.90;;;;;;;22.44;100.00;166443.16;4994046;28;20077;-58
2022/08/26 09:16:07;;;;;;;9.47;3.93;;;;;;;22.49;100.00;166455.34;4992785;28;20132;-59
2022/08/26 09:19:02;;;;;;;14.90;4.30;;;;;;;22.62;100.00;166489.34;4952523;29;20050;-58
2022/08/26 09:21:28;;;;;;;11.13;3.22;;;;;;;22.67;100.00;166502.97;4992543;28;20062;-58
2022/08/26 09:23:55;;;;;;;14.10;4.85;;;;;;;22.71;100.00;166512.47;4993041;28;20022;-58
2022/08/26 09:26:40;;;;;;;13.90;4.13;;;;;;;22.74;100.00;166522.00;4994590;28;20026;-58
2022/08/26 09:29:14;;;;;;;14.05;4.97;;;;;;;22.63;100.00;166492.06;4992489;28;20427;-58
2022/08/26 09:31:40;;;;;;;11.65;3.75;;;;;;;22.46;100.00;166448.56;4993759;28;20026;-58
2022/08/26 09:34:26;;;;;;;15.05;5.18;;;;;;;22.43;100.00;166439.06;4992793;28;20030;-58
2022/08/26 09:36:53;;;;;;;16.33;6.65;;;;;;;22.44;100.00;166443.16;4993565;28;20027;-58
2022/08/26 09:39:27;;;;;;;13.25;3.50;;;;;;;22.48;100.00;166452.69;4992397;28;20035;-58
2022/08/26 09:42:21;;;;;;;9.73;4.25;;;;;;;22.56;100.00;166473.03;4993717;28;20053;-58
2022/08/26 09:45:01;;;;;;;45.30;8.00;;;;;;;22.50;100.00;166459.47;4986049;28;20409;-58
2022/08/26 09:47:51;;;;;;;17.48;5.35;;;;;;;22.39;100.00;166429.53;4993648;28;20045;-58
2022/08/26 09:50:25;;;;;;;12.00;3.50;;;;;;;22.35;100.00;166419.97;4999413;28;20525;-58
2022/08/26 09:53:22;;;;;;;11.55;4.35;;;;;;;22.43;100.00;166440.44;5013291;28;20181;-58
2022/08/26 09:56:09;;;;;;;11.52;4.78;;;;;;;22.49;100.00;166456.75;4969902;28;20046;-58
2022/08/26 09:58:37;;;;;;;7.95;4.55;;;;;;;22.37;100.00;166424.09;4973664;28;20054;-58
2022/08/26 10:01:06;;;;;;;9.77;3.97;;;;;;;22.33;100.00;166413.19;4990458;28;20513;-58
2022/08/26 10:03:35;;;;;;;12.20;4.22;;;;;;;22.35;100.00;166418.66;4992815;28;20022;-58
2022/08/26 10:06:05;;;;;;;9.65;3.55;;;;;;;22.52;100.00;166463.53;4991448;28;20034;-58
2022/08/26 10:08:32;;;;;;;14.45;5.30;;;;;;;22.42;100.00;166437.72;4992886;28;20022;-58
2022/08/26 10:11:03;;;;;;;22.23;6.70;;;;;;;22.60;100.00;166483.94;4991793;28;20047;-58
2022/08/26 10:13:36;;;;;;;16.60;5.43;;;;;;;22.60;100.00;166485.28;4992732;28;20030;-58
2022/08/26 10:16:13;;;;;;;14.13;3.50;;;;;;;22.66;100.00;166500.25;4991395;28;20664;-58
2022/08/26 10:18:46;;;;;;;12.45;3.60;;;;;;;22.73;100.00;166519.25;4992861;28;20474;-58
2022/08/26 10:21:18;;;;;;;13.38;4.97;;;;;;;22.63;100.00;166492.06;4990050;28;20045;-58
2022/08/26 10:23:48;;;;;;;29.92;9.60;;;;;;;22.52;100.00;166463.53;4992925;28;20471;-58
2022/08/26 10:26:24;;;;;;;7.82;3.20;;;;;;;22.63;100.00;166492.06;4991709;28;20042;-58
2022/08/26 10:29:00;;;;;;;12.95;3.50;;;;;;;22.65;100.00;166498.84;4990177;28;20034;-58
2022/08/26 10:31:35;;;;;;;12.02;3.55;;;;;;;22.69;100.00;166508.34;4992075;28;20030;-59
2022/08/26 10:34:00;;;;;;;10.38;4.97;;;;;;;22.71;100.00;166513.81;4991351;28;20045;-58
2022/08/26 10:36:48;;;;;;;10.25;4.03;;;;;;;22.79;100.00;166534.16;4992261;28;20023;-59
2022/08/26 10:39:21;;;;;;;;;;;;;;;22.69;100.00;166508.34;4991912;28;20108;-58
2022/08/26 10:41:50;;;;;;;9.20;3.90;;;;;;;22.62;100.00;166489.34;4992215;28;19913;-58
2022/08/26 10:44:19;;;;;;;6.97;3.85;;;;;;;22.63;100.00;166493.44;4991341;28;20031;-57
2022/08/26 10:46:53;;;;;;;20.60;4.25;;;;;;;22.47;100.00;166451.28;4992538;28;20030;-58
2022/08/26 10:49:19;;;;;;;7.80;2.72;;;;;;;22.50;100.00;166458.06;4990847;28;20041;-58
2022/08/26 10:51:56;;;;;;;13.85;4.25;;;;;;;22.63;100.00;166492.06;4992497;28;20022;-58
2022/08/26 10:54:38;;;;;;;9.47;3.10;;;;;;;22.66;100.00;166500.25;4991202;28;20038;-58
2022/08/26 10:57:12;;;;;;;9.95;4.28;;;;;;;22.73;100.00;166519.25;4992208;28;20053;-58
2022/08/26 11:01:40;;;;;;;12.63;3.45;;;;;;;22.90;100.00;166562.72;4990694;28;20505;-58
2022/08/26 11:03:30;;;;;;;10.85;3.45;;;;;;;22.64;100.00;166496.13;4991358;28;20037;-58
2022/08/26 11:06:19;;;;;;;5.40;3.35;;;;;;;22.41;100.00;166435.00;4987036;28;20049;-58
2022/08/26 11:08:46;;;;;;;4.78;2.85;;;;;;;22.29;100.00;166403.69;4989946;28;20478;-58
2022/08/26 11:11:44;;;;;;;16.13;2.97;;;;;;;22.46;100.00;166448.56;4970263;28;20047;-58
2022/08/26 11:14:18;;;;;;;8.85;3.08;;;;;;;22.57;100.00;166475.75;4970092;28;20050;-58
2022/08/26 11:16:52;;;;;;;6.47;2.45;;;;;;;22.70;100.00;166511.09;4970841;28;20026;-58
2022/08/26 11:19:40;;;;;;;8.73;3.80;;;;;;;22.75;100.00;166524.66;4974019;28;20042;-58
2022/08/26 11:22:09;;;;;;;;;;;;;;;22.58;100.00;166478.47;4992815;28;20037;-57